Time;durP1;ratioP1;P1;durP2;ratioP2;P2;SDS_P1;SDS_P2;PMS_P1;PMS_P2;Temp;Humidity;BMP_temperature;BMP_pressure;BME280_temperature;BME280_humidity;BME280_pressure;Samples;Min_cycle;Max_cycle;Signal;HPM_P1;HPM_P2
2023/10/15 00:00:15;;;;;;;;;;;;;;;;;;109198;1253;60325;-79
2023/10/15 00:03:02;;;;;;;;;;;;;;;;;;109212;1253;60137;-79
2023/10/15 00:05:29;;;;;;;;;;;;;;;;;;109196;1253;60494;-80
2023/10/15 00:07:57;;;;;;;;;;;;;;;;;;109248;1253;59831;-79
2023/10/15 00:10:23;;;;;;;;;;;;;;;;;;109242;1253;59963;-80
2023/10/15 00:12:49;;;;;;;;;;;;;;;;;;109239;1253;59871;-80
2023/10/15 00:15:19;;;;;;;;;;;;;;;;;;109233;1252;60310;-80
2023/10/15 00:17:45;;;;;;;;;;;;;;;;;;109236;1253;60921;-79
2023/10/15 00:20:16;;;;;;;;;;;;;;;;;;109197;1252;60472;-79
2023/10/15 00:22:42;;;;;;;;;;;;;;;;;;109197;1253;60060;-80
2023/10/15 00:25:11;;;;;;;;;;;;;;;;;;109183;1253;60416;-80
2023/10/15 00:27:38;;;;;;;;;;;;;;;;;;109211;1252;60259;-79
2023/10/15 00:30:06;;;;;;;;;;;;;;;;;;109207;1253;59898;-79
2023/10/15 00:32:32;;;;;;;;;;;;;;;;;;109239;1253;60132;-79
2023/10/15 00:34:59;;;;;;;;;;;;;;;;;;109191;1253;60402;-80
2023/10/15 00:37:25;;;;;;;;;;;;;;;;;;109228;1252;59903;-80
2023/10/15 00:39:51;;;;;;;;;;;;;;;;;;109200;1253;60482;-80
2023/10/15 00:42:18;;;;;;;;;;;;;;;;;;109222;1253;59908;-79
2023/10/15 00:44:44;;;;;;;;;;;;;;;;;;109193;1253;59940;-79
2023/10/15 00:47:15;;;;;;;;;;;;;;;;;;109168;1253;60566;-80
2023/10/15 00:49:41;;;;;;;;;;;;;;;;;;109250;1252;62782;-79
2023/10/15 00:52:09;;;;;;;;;;;;;;;;;;109195;1254;60120;-79
2023/10/15 00:54:36;;;;;;;;;;;;;;;;;;109209;1252;59770;-80
2023/10/15 00:57:25;;;;;;;;;;;;;;;;;;109186;1253;59901;-80
2023/10/15 00:59:50;;;;;;;;;;;;;;;;;;109204;1252;60426;-80
2023/10/15 01:02:22;;;;;;;;;;;;;;;;;;109243;1253;61240;-80
2023/10/15 01:04:50;;;;;;;;;;;;;;;;;;109173;1253;59921;-79
2023/10/15 01:07:46;;;;;;;;;;;;;;;;;;109224;1252;60129;-80
2023/10/15 01:10:12;;;;;;;;;;;;;;;;;;109169;1253;59944;-79
2023/10/15 01:12:38;;;;;;;;;;;;;;;;;;109033;1253;217316;-79
2023/10/15 01:15:06;;;;;;;;;;;;;;;;;;109218;1252;60585;-79
2023/10/15 01:17:37;;;;;;;;;;;;;;;;;;109213;1252;59849;-79
2023/10/15 01:20:05;;;;;;;;;;;;;;;;;;109195;1253;60665;-79
2023/10/15 01:22:32;;;;;;;;;;;;;;;;;;109187;1252;59844;-79
2023/10/15 01:25:00;;;;;;;;;;;;;;;;;;109214;1252;59884;-79
2023/10/15 01:27:30;;;;;;;;;;;;;;;;;;109232;1252;62411;-79
2023/10/15 01:29:58;;;;;;;;;;;;;;;;;;109191;1252;59932;-80
2023/10/15 01:32:25;;;;;;;;;;;;;;;;;;109196;1253;60717;-79
2023/10/15 01:34:52;;;;;;;;;;;;;;;;;;109194;1253;59862;-79
2023/10/15 01:39:48;;;;;;;;;;;;;;;;;;109220;1252;62512;-80
2023/10/15 01:44:55;;;;;;;;;;;;;;;;;;109186;1253;60909;-79
2023/10/15 01:47:28;;;;;;;;;;;;;;;;;;109311;1251;59964;-79
2023/10/15 01:49:56;;;;;;;;;;;;;;;;;;109361;1252;59834;-79
2023/10/15 01:52:30;;;;;;;;;;;;;;;;;;109328;1251;62948;-79
2023/10/15 01:55:04;;;;;;;;;;;;;;;;;;109305;1251;59832;-79
2023/10/15 01:57:30;;;;;;;;;;;;;;;;;;109339;1251;60090;-79
2023/10/15 02:00:05;;;;;;;;;;;;;;;;;;109384;1251;59849;-79
2023/10/15 02:02:32;;;;;;;;;;;;;;;;;;109382;1251;59880;-79
2023/10/15 02:04:59;;;;;;;;;;;;;;;;;;109309;1252;62701;-80
2023/10/15 02:07:25;;;;;;;;;;;;;;;;;;109210;1253;59886;-79
2023/10/15 02:09:52;;;;;;;;;;;;;;;;;;109154;1256;60444;-80
2023/10/15 02:12:18;;;;;;;;;;;;;;;;;;109176;1253;59894;-79
2023/10/15 02:14:44;;;;;;;;;;;;;;;;;;109184;1252;60349;-79
2023/10/15 02:17:14;;;;;;;;;;;;;;;;;;109196;1252;60181;-79
2023/10/15 02:19:43;;;;;;;;;;;;;;;;;;109181;1253;60185;-79
2023/10/15 02:22:12;;;;;;;;;;;;;;;;;;109183;1253;59797;-80
2023/10/15 02:24:46;;;;;;;;;;;;;;;;;;109147;1253;60304;-79
2023/10/15 02:27:17;;;;;;;;;;;;;;;;;;109232;1252;60416;-79
2023/10/15 02:29:47;;;;;;;;;;;;;;;;;;109180;1253;62813;-79
2023/10/15 02:34:51;;;;;;;;;;;;;;;;;;109182;1256;60431;-79
2023/10/15 02:37:18;;;;;;;;;;;;;;;;;;109197;1253;60281;-79
2023/10/15 02:39:49;;;;;;;;;;;;;;;;;;109190;1253;59817;-79
2023/10/15 02:42:16;;;;;;;;;;;;;;;;;;109234;1253;61611;-79
2023/10/15 02:44:42;;;;;;;;;;;;;;;;;;109297;1253;59758;-80
2023/10/15 02:47:28;;;;;;;;;;;;;;;;;;109180;1254;60327;-79
2023/10/15 02:50:02;;;;;;;;;;;;;;;;;;109342;1251;60120;-79
2023/10/15 02:55:27;;;;;;;;;;;;;;;;;;109164;1251;62992;-79
2023/10/15 02:58:00;;;;;;;;;;;;;;;;;;109265;1256;60203;-80
2023/10/15 03:00:32;;;;;;;;;;;;;;;;;;109183;1252;60347;-79
2023/10/15 03:03:07;;;;;;;;;;;;;;;;;;109183;1252;60473;-79
2023/10/15 03:05:38;;;;;;;;;;;;;;;;;;109238;1253;59831;-80
2023/10/15 03:08:04;;;;;;;;;;;;;;;;;;109245;1253;61243;-79
2023/10/15 03:10:45;;;;;;;;;;;;;;;;;;109220;1256;59785;-79
2023/10/15 03:13:14;;;;;;;;;;;;;;;;;;109244;1253;60167;-79
2023/10/15 03:15:48;;;;;;;;;;;;;;;;;;109214;1253;59980;-79
2023/10/15 03:18:21;;;;;;;;;;;;;;;;;;109232;1253;59934;-79
2023/10/15 03:21:00;;;;;;;;;;;;;;;;;;109189;1253;61219;-79
2023/10/15 03:23:26;;;;;;;;;;;;;;;;;;109203;1252;60118;-79
2023/10/15 03:25:52;;;;;;;;;;;;;;;;;;109184;1253;59870;-80
2023/10/15 03:28:23;;;;;;;;;;;;;;;;;;109203;1254;59865;-79
2023/10/15 03:30:54;;;;;;;;;;;;;;;;;;109200;1254;60203;-79
2023/10/15 03:33:23;;;;;;;;;;;;;;;;;;109214;1253;61301;-79
2023/10/15 03:35:55;;;;;;;;;;;;;;;;;;109188;1252;59987;-80
2023/10/15 03:38:32;;;;;;;;;;;;;;;;;;109189;1253;60353;-79
2023/10/15 03:41:11;;;;;;;;;;;;;;;;;;109208;1253;59933;-79
2023/10/15 03:43:39;;;;;;;;;;;;;;;;;;109172;1252;60073;-79
2023/10/15 03:46:24;;;;;;;;;;;;;;;;;;109235;1253;62796;-79
2023/10/15 03:48:53;;;;;;;;;;;;;;;;;;109335;1251;60513;-79
2023/10/15 03:51:23;;;;;;;;;;;;;;;;;;109322;1251;59865;-79
2023/10/15 03:53:49;;;;;;;;;;;;;;;;;;109344;1251;59892;-79
2023/10/15 03:56:18;;;;;;;;;;;;;;;;;;109296;1251;60535;-80
2023/10/15 03:58:45;;;;;;;;;;;;;;;;;;109374;1251;61593;-79
2023/10/15 04:01:17;;;;;;;;;;;;;;;;;;109214;1251;60411;-79
2023/10/15 04:03:47;;;;;;;;;;;;;;;;;;109320;1251;59885;-79
2023/10/15 04:06:13;;;;;;;;;;;;;;;;;;109207;1253;60223;-79
2023/10/15 04:08:39;;;;;;;;;;;;;;;;;;109182;1253;60252;-79
2023/10/15 04:11:06;;;;;;;;;;;;;;;;;;109155;1254;60500;-79
2023/10/15 04:13:34;;;;;;;;;;;;;;;;;;109210;1254;60421;-79
2023/10/15 04:16:00;;;;;;;;;;;;;;;;;;109164;1254;60449;-79
2023/10/15 04:18:29;;;;;;;;;;;;;;;;;;109188;1256;60232;-79
2023/10/15 04:20:56;;;;;;;;;;;;;;;;;;109217;1253;59758;-79
2023/10/15 04:23:31;;;;;;;;;;;;;;;;;;109177;1253;59759;-79
2023/10/15 04:25:57;;;;;;;;;;;;;;;;;;109215;1256;60634;-79
2023/10/15 04:28:25;;;;;;;;;;;;;;;;;;109160;1253;60461;-79
2023/10/15 04:30:52;;;;;;;;;;;;;;;;;;109179;1254;60545;-79
2023/10/15 04:33:20;;;;;;;;;;;;;;;;;;109172;1252;59883;-79
2023/10/15 04:35:48;;;;;;;;;;;;;;;;;;109176;1253;63985;-79
2023/10/15 04:38:30;;;;;;;;;;;;;;;;;;109197;1253;60455;-79
2023/10/15 04:43:26;;;;;;;;;;;;;;;;;;109183;1253;60514;-79
2023/10/15 04:45:54;;;;;;;;;;;;;;;;;;109213;1251;59798;-79
2023/10/15 04:48:27;;;;;;;;;;;;;;;;;;109362;1254;61158;-79
2023/10/15 04:50:53;;;;;;;;;;;;;;;;;;109345;1251;59877;-80
2023/10/15 04:55:46;;;;;;;;;;;;;;;;;;109289;1251;59909;-79
2023/10/15 04:58:12;;;;;;;;;;;;;;;;;;109354;1251;59998;-80
2023/10/15 05:00:38;;;;;;;;;;;;;;;;;;109238;1251;60465;-79
2023/10/15 05:03:05;;;;;;;;;;;;;;;;;;109329;1251;59811;-80
2023/10/15 05:05:31;;;;;;;;;;;;;;;;;;109223;1253;59822;-79
2023/10/15 05:08:00;;;;;;;;;;;;;;;;;;109156;1253;59862;-79
2023/10/15 05:10:26;;;;;;;;;;;;;;;;;;109205;1253;60201;-79
2023/10/15 05:12:52;;;;;;;;;;;;;;;;;;109231;1252;60484;-79
2023/10/15 05:15:19;;;;;;;;;;;;;;;;;;109243;1254;59872;-79
2023/10/15 05:17:47;;;;;;;;;;;;;;;;;;109254;1253;59843;-79
2023/10/15 05:20:14;;;;;;;;;;;;;;;;;;109292;1253;60404;-79
2023/10/15 05:22:40;;;;;;;;;;;;;;;;;;109228;1253;60242;-79
2023/10/15 05:25:15;;;;;;;;;;;;;;;;;;109202;1254;59832;-79
2023/10/15 05:27:42;;;;;;;;;;;;;;;;;;109188;1254;59834;-79
2023/10/15 05:30:11;;;;;;;;;;;;;;;;;;109189;1253;60875;-79
2023/10/15 05:32:38;;;;;;;;;;;;;;;;;;109206;1253;60525;-79
2023/10/15 05:35:08;;;;;;;;;;;;;;;;;;109303;1254;60421;-79
2023/10/15 05:37:36;;;;;;;;;;;;;;;;;;109221;1254;63874;-79
2023/10/15 05:40:03;;;;;;;;;;;;;;;;;;109229;1254;60499;-79
2023/10/15 05:42:29;;;;;;;;;;;;;;;;;;109218;1253;60297;-79
2023/10/15 05:44:56;;;;;;;;;;;;;;;;;;109169;1253;60110;-80
2023/10/15 05:47:22;;;;;;;;;;;;;;;;;;109354;1251;59786;-79
2023/10/15 05:49:49;;;;;;;;;;;;;;;;;;109361;1251;60426;-79
2023/10/15 05:52:15;;;;;;;;;;;;;;;;;;109333;1251;60348;-79
2023/10/15 05:54:41;;;;;;;;;;;;;;;;;;109321;1251;60232;-79
2023/10/15 05:57:08;;;;;;;;;;;;;;;;;;109328;1251;59888;-79
2023/10/15 05:59:34;;;;;;;;;;;;;;;;;;109368;1251;59858;-79
2023/10/15 06:02:00;;;;;;;;;;;;;;;;;;109368;1251;60542;-79
2023/10/15 06:04:26;;;;;;;;;;;;;;;;;;109299;1251;60435;-79
2023/10/15 06:06:53;;;;;;;;;;;;;;;;;;109213;1252;60129;-79
2023/10/15 06:09:19;;;;;;;;;;;;;;;;;;109173;1253;59870;-79
2023/10/15 06:11:45;;;;;;;;;;;;;;;;;;109207;1253;59983;-79
2023/10/15 06:14:12;;;;;;;;;;;;;;;;;;109185;1253;60535;-79
2023/10/15 06:16:38;;;;;;;;;;;;;;;;;;109149;1253;60449;-79
2023/10/15 06:19:04;;;;;;;;;;;;;;;;;;109199;1253;59871;-79
2023/10/15 06:21:32;;;;;;;;;;;;;;;;;;109199;1254;60507;-79
2023/10/15 06:23:58;;;;;;;;;;;;;;;;;;109204;1252;59830;-79
2023/10/15 06:26:25;;;;;;;;;;;;;;;;;;109166;1254;59854;-81
2023/10/15 06:28:51;;;;;;;;;;;;;;;;;;109182;1253;59881;-79
2023/10/15 06:31:17;;;;;;;;;;;;;;;;;;109134;1254;60279;-79
2023/10/15 06:33:44;;;;;;;;;;;;;;;;;;109182;1254;59945;-80
2023/10/15 06:36:10;;;;;;;;;;;;;;;;;;109215;1252;60141;-79
2023/10/15 06:38:36;;;;;;;;;;;;;;;;;;109209;1253;60481;-79
2023/10/15 06:41:04;;;;;;;;;;;;;;;;;;109206;1252;59851;-79
2023/10/15 06:43:31;;;;;;;;;;;;;;;;;;109318;1252;59907;-79
2023/10/15 06:45:57;;;;;;;;;;;;;;;;;;109186;1251;60137;-79
2023/10/15 06:48:23;;;;;;;;;;;;;;;;;;109322;1251;60406;-80
2023/10/15 06:50:50;;;;;;;;;;;;;;;;;;109311;1251;60440;-79
2023/10/15 06:53:16;;;;;;;;;;;;;;;;;;109361;1251;60034;-79
2023/10/15 06:55:45;;;;;;;;;;;;;;;;;;109354;1251;60260;-80
2023/10/15 06:58:12;;;;;;;;;;;;;;;;;;109333;1251;60038;-80
2023/10/15 07:00:39;;;;;;;;;;;;;;;;;;109316;1251;60023;-80
2023/10/15 07:03:05;;;;;;;;;;;;;;;;;;109310;1251;63768;-79
2023/10/15 07:05:31;;;;;;;;;;;;;;;;;;109221;1253;60315;-80
2023/10/15 07:07:58;;;;;;;;;;;;;;;;;;109189;1253;59879;-79
2023/10/15 07:10:24;;;;;;;;;;;;;;;;;;109192;1252;60501;-79
2023/10/15 07:12:50;;;;;;;;;;;;;;;;;;109185;1253;59847;-79
2023/10/15 07:15:17;;;;;;;;;;;;;;;;;;109199;1252;59850;-79
2023/10/15 07:17:43;;;;;;;;;;;;;;;;;;109194;1252;60638;-79
2023/10/15 07:20:18;;;;;;;;;;;;;;;;;;109169;1253;60446;-79
2023/10/15 07:22:46;;;;;;;;;;;;;;;;;;109195;1254;59893;-79
2023/10/15 07:25:13;;;;;;;;;;;;;;;;;;109241;1252;59747;-79
2023/10/15 07:27:44;;;;;;;;;;;;;;;;;;109158;1252;63603;-79
2023/10/15 07:30:12;;;;;;;;;;;;;;;;;;109169;1253;60420;-79
2023/10/15 07:32:39;;;;;;;;;;;;;;;;;;109197;1254;60368;-79
2023/10/15 07:35:07;;;;;;;;;;;;;;;;;;109188;1252;60620;-79
2023/10/15 07:37:34;;;;;;;;;;;;;;;;;;109188;1253;60017;-79
2023/10/15 07:40:05;;;;;;;;;;;;;;;;;;109182;1252;62378;-79
2023/10/15 07:42:32;;;;;;;;;;;;;;;;;;109214;1253;60216;-79
2023/10/15 07:44:59;;;;;;;;;;;;;;;;;;109174;1252;60290;-79
2023/10/15 07:47:26;;;;;;;;;;;;;;;;;;109324;1251;59794;-79
2023/10/15 07:49:52;;;;;;;;;;;;;;;;;;109361;1251;60358;-79
2023/10/15 07:52:18;;;;;;;;;;;;;;;;;;109364;1251;59813;-79
2023/10/15 07:54:44;;;;;;;;;;;;;;;;;;109336;1252;59906;-79
2023/10/15 07:57:12;;;;;;;;;;;;;;;;;;109306;1251;60520;-79
2023/10/15 07:59:38;;;;;;;;;;;;;;;;;;109352;1251;59893;-79
2023/10/15 08:02:07;;;;;;;;;;;;;;;;;;109379;1251;60456;-79
2023/10/15 08:04:34;;;;;;;;;;;;;;;;;;109317;1251;62727;-79
2023/10/15 08:07:00;;;;;;;;;;;;;;;;;;109177;1252;59791;-79
2023/10/15 08:09:29;;;;;;;;;;;;;;;;;;109191;1253;59961;-79
2023/10/15 08:11:56;;;;;;;;;;;;;;;;;;109196;1252;60469;-79
2023/10/15 08:14:22;;;;;;;;;;;;;;;;;;109192;1253;59899;-79
2023/10/15 08:19:51;;;;;;;;;;;;;;;;;;109165;1252;60430;-79
2023/10/15 08:22:18;;;;;;;;;;;;;;;;;;109179;1252;60262;-79
2023/10/15 08:24:45;;;;;;;;;;;;;;;;;;109150;1252;59892;-79
2023/10/15 08:27:13;;;;;;;;;;;;;;;;;;109207;1252;59940;-79
2023/10/15 08:29:39;;;;;;;;;;;;;;;;;;109182;1252;62542;-79
2023/10/15 08:32:09;;;;;;;;;;;;;;;;;;109212;1252;60023;-79
2023/10/15 08:34:35;;;;;;;;;;;;;;;;;;109210;1252;61101;-79
2023/10/15 08:37:02;;;;;;;;;;;;;;;;;;109157;1252;60124;-79
2023/10/15 08:39:29;;;;;;;;;;;;;;;;;;109205;1252;59937;-80
2023/10/15 08:41:55;;;;;;;;;;;;;;;;;;109217;1252;62954;-80
2023/10/15 08:44:22;;;;;;;;;;;;;;;;;;109226;1252;59868;-79
2023/10/15 08:46:48;;;;;;;;;;;;;;;;;;109275;1251;60441;-79
2023/10/15 08:49:15;;;;;;;;;;;;;;;;;;109371;1251;59818;-79
2023/10/15 08:51:41;;;;;;;;;;;;;;;;;;109379;1251;60290;-79
2023/10/15 08:54:10;;;;;;;;;;;;;;;;;;109338;1251;60704;-79
2023/10/15 08:56:37;;;;;;;;;;;;;;;;;;109316;1251;59776;-79
2023/10/15 08:59:04;;;;;;;;;;;;;;;;;;109304;1251;60482;-79
2023/10/15 09:01:32;;;;;;;;;;;;;;;;;;109343;1251;60261;-79
2023/10/15 09:03:58;;;;;;;;;;;;;;;;;;109345;1251;60161;-80
2023/10/15 09:06:24;;;;;;;;;;;;;;;;;;109181;1252;60233;-79
2023/10/15 09:08:51;;;;;;;;;;;;;;;;;;109200;1252;60555;-80
2023/10/15 09:11:17;;;;;;;;;;;;;;;;;;109155;1252;59836;-79
2023/10/15 09:13:43;;;;;;;;;;;;;;;;;;109162;1252;59878;-79
2023/10/15 09:16:10;;;;;;;;;;;;;;;;;;109164;1252;59919;-79
2023/10/15 09:18:36;;;;;;;;;;;;;;;;;;109193;1253;60318;-79
2023/10/15 09:21:06;;;;;;;;;;;;;;;;;;109076;1253;59966;-79
2023/10/15 09:23:35;;;;;;;;;;;;;;;;;;109193;1252;60217;-80
2023/10/15 09:26:01;;;;;;;;;;;;;;;;;;109137;1253;59903;-80
2023/10/15 09:28:28;;;;;;;;;;;;;;;;;;109191;1252;60482;-80
2023/10/15 09:30:55;;;;;;;;;;;;;;;;;;109319;1252;60561;-80
2023/10/15 09:33:21;;;;;;;;;;;;;;;;;;109172;1252;60195;-80
2023/10/15 09:35:49;;;;;;;;;;;;;;;;;;109172;1252;59999;-79
2023/10/15 09:38:16;;;;;;;;;;;;;;;;;;109165;1252;60471;-79
2023/10/15 09:40:45;;;;;;;;;;;;;;;;;;109221;1252;60079;-80
2023/10/15 09:43:13;;;;;;;;;;;;;;;;;;109241;1252;63175;-79
2023/10/15 09:45:41;;;;;;;;;;;;;;;;;;109225;1251;60165;-79
2023/10/15 09:48:09;;;;;;;;;;;;;;;;;;109346;1253;60331;-80
2023/10/15 09:50:38;;;;;;;;;;;;;;;;;;109317;1253;60468;-79
2023/10/15 09:53:11;;;;;;;;;;;;;;;;;;109334;1251;60041;-79
2023/10/15 09:55:37;;;;;;;;;;;;;;;;;;109367;1251;62796;-79
2023/10/15 09:58:09;;;;;;;;;;;;;;;;;;109327;1251;59822;-80
2023/10/15 10:00:48;;;;;;;;;;;;;;;;;;109324;1251;60205;-79
2023/10/15 10:03:14;;;;;;;;;;;;;;;;;;109293;1251;60508;-80
2023/10/15 10:05:49;;;;;;;;;;;;;;;;;;109253;1252;59817;-80
2023/10/15 10:08:16;;;;;;;;;;;;;;;;;;109199;1252;62968;-79
2023/10/15 10:10:42;;;;;;;;;;;;;;;;;;109214;1252;59767;-79
2023/10/15 10:13:08;;;;;;;;;;;;;;;;;;109186;1252;59902;-80
2023/10/15 10:18:38;;;;;;;;;;;;;;;;;;109213;1252;59803;-79
2023/10/15 10:21:04;;;;;;;;;;;;;;;;;;109185;1252;60182;-80
2023/10/15 10:23:30;;;;;;;;;;;;;;;;;;109245;1252;60579;-80
2023/10/15 10:25:58;;;;;;;;;;;;;;;;;;109208;1252;59782;-79
2023/10/15 10:28:25;;;;;;;;;;;;;;;;;;109227;1252;60538;-80
2023/10/15 10:30:52;;;;;;;;;;;;;;;;;;109228;1252;59924;-80
2023/10/15 10:33:19;;;;;;;;;;;;;;;;;;109228;1252;63626;-80
2023/10/15 10:35:45;;;;;;;;;;;;;;;;;;109234;1252;60433;-80
2023/10/15 10:38:12;;;;;;;;;;;;;;;;;;109140;1253;60333;-80
2023/10/15 10:40:38;;;;;;;;;;;;;;;;;;109182;1253;59826;-79
2023/10/15 10:43:04;;;;;;;;;;;;;;;;;;109211;1253;60127;-79
2023/10/15 10:45:31;;;;;;;;;;;;;;;;;;109181;1252;60388;-80
2023/10/15 10:47:57;;;;;;;;;;;;;;;;;;109409;1251;59834;-79
2023/10/15 10:50:25;;;;;;;;;;;;;;;;;;109343;1251;60493;-80
2023/10/15 10:52:51;;;;;;;;;;;;;;;;;;109330;1251;59959;-80
2023/10/15 10:55:19;;;;;;;;;;;;;;;;;;109355;1253;59974;-80
2023/10/15 10:57:45;;;;;;;;;;;;;;;;;;109302;1252;61400;-80
2023/10/15 11:00:12;;;;;;;;;;;;;;;;;;109233;1252;60168;-80
2023/10/15 11:02:38;;;;;;;;;;;;;;;;;;109187;1252;60433;-79
2023/10/15 11:05:11;;;;;;;;;;;;;;;;;;109173;1253;59856;-80
2023/10/15 11:07:37;;;;;;;;;;;;;;;;;;109208;1252;60121;-79
2023/10/15 11:10:05;;;;;;;;;;;;;;;;;;109198;1253;60890;-79
2023/10/15 11:12:32;;;;;;;;;;;;;;;;;;109222;1252;59914;-80
2023/10/15 11:14:58;;;;;;;;;;;;;;;;;;109180;1253;60293;-80
2023/10/15 11:17:25;;;;;;;;;;;;;;;;;;109333;1252;60279;-80
2023/10/15 11:19:51;;;;;;;;;;;;;;;;;;109241;1252;60004;-79
2023/10/15 11:22:17;;;;;;;;;;;;;;;;;;109226;1252;60164;-80
2023/10/15 11:24:44;;;;;;;;;;;;;;;;;;109223;1253;59780;-79
2023/10/15 11:27:12;;;;;;;;;;;;;;;;;;109192;1252;60061;-80
2023/10/15 11:29:38;;;;;;;;;;;;;;;;;;109163;1252;60091;-79
2023/10/15 11:32:06;;;;;;;;;;;;;;;;;;109180;1252;60515;-80
2023/10/15 11:34:35;;;;;;;;;;;;;;;;;;109229;1252;62589;-79
2023/10/15 11:37:02;;;;;;;;;;;;;;;;;;109229;1252;60071;-80
2023/10/15 11:39:38;;;;;;;;;;;;;;;;;;109177;1252;59870;-79
2023/10/15 11:42:04;;;;;;;;;;;;;;;;;;109267;1252;59974;-80
2023/10/15 11:44:30;;;;;;;;;;;;;;;;;;109202;1252;60522;-79
2023/10/15 11:46:57;;;;;;;;;;;;;;;;;;109230;1252;59858;-79
2023/10/15 11:49:23;;;;;;;;;;;;;;;;;;109179;1252;59844;-79
2023/10/15 11:51:49;;;;;;;;;;;;;;;;;;109215;1252;60175;-80
2023/10/15 11:54:16;;;;;;;;;;;;;;;;;;109157;1252;60491;-80
2023/10/15 11:56:42;;;;;;;;;;;;;;;;;;109187;1252;59851;-80
2023/10/15 11:59:09;;;;;;;;;;;;;;;;;;109198;1252;60612;-79
2023/10/15 12:01:35;;;;;;;;;;;;;;;;;;109194;1252;59863;-80
2023/10/15 12:04:01;;;;;;;;;;;;;;;;;;109171;1252;59939;-80
2023/10/15 12:06:28;;;;;;;;;;;;;;;;;;109174;1252;60275;-79
2023/10/15 12:08:58;;;;;;;;;;;;;;;;;;109219;1252;59932;-79
2023/10/15 12:11:25;;;;;;;;;;;;;;;;;;109238;1252;61640;-80
2023/10/15 12:13:52;;;;;;;;;;;;;;;;;;109180;1252;60188;-80
2023/10/15 12:16:18;;;;;;;;;;;;;;;;;;109199;1252;59861;-80
2023/10/15 12:18:44;;;;;;;;;;;;;;;;;;109160;1252;60370;-79
2023/10/15 12:21:11;;;;;;;;;;;;;;;;;;109202;1252;59851;-79
2023/10/15 12:23:37;;;;;;;;;;;;;;;;;;109173;1253;60548;-79
2023/10/15 12:26:07;;;;;;;;;;;;;;;;;;109192;1252;59922;-80
2023/10/15 12:28:43;;;;;;;;;;;;;;;;;;109176;1252;59942;-79
2023/10/15 12:31:09;;;;;;;;;;;;;;;;;;109179;1253;59821;-79
2023/10/15 12:33:35;;;;;;;;;;;;;;;;;;109179;1253;59936;-79
2023/10/15 12:36:02;;;;;;;;;;;;;;;;;;109217;1252;59907;-79
2023/10/15 12:38:28;;;;;;;;;;;;;;;;;;109200;1252;60422;-79
2023/10/15 12:40:55;;;;;;;;;;;;;;;;;;109204;1252;60582;-79
2023/10/15 12:43:21;;;;;;;;;;;;;;;;;;109196;1252;59843;-80
2023/10/15 12:45:52;;;;;;;;;;;;;;;;;;109196;1251;60463;-79
2023/10/15 12:48:18;;;;;;;;;;;;;;;;;;109357;1253;62890;-79
2023/10/15 12:50:45;;;;;;;;;;;;;;;;;;109383;1251;59831;-80
2023/10/15 12:53:11;;;;;;;;;;;;;;;;;;109300;1253;60442;-79
2023/10/15 12:55:38;;;;;;;;;;;;;;;;;;109326;1251;59887;-79
2023/10/15 12:58:04;;;;;;;;;;;;;;;;;;109367;1251;59820;-80
2023/10/15 13:00:32;;;;;;;;;;;;;;;;;;109343;1251;60150;-79
2023/10/15 13:02:59;;;;;;;;;;;;;;;;;;109359;1253;59888;-80
2023/10/15 13:05:25;;;;;;;;;;;;;;;;;;109250;1252;60218;-80
2023/10/15 13:07:51;;;;;;;;;;;;;;;;;;109218;1253;59764;-80
2023/10/15 13:10:18;;;;;;;;;;;;;;;;;;109279;1252;59836;-79
2023/10/15 13:12:44;;;;;;;;;;;;;;;;;;109096;1252;178151;-80
2023/10/15 13:15:10;;;;;;;;;;;;;;;;;;109256;1252;60519;-80
2023/10/15 13:17:40;;;;;;;;;;;;;;;;;;109259;1253;59877;-80
2023/10/15 13:20:06;;;;;;;;;;;;;;;;;;109202;1252;59818;-79
2023/10/15 13:22:32;;;;;;;;;;;;;;;;;;109256;1252;60563;-80
2023/10/15 13:24:59;;;;;;;;;;;;;;;;;;109209;1252;59783;-79
2023/10/15 13:27:25;;;;;;;;;;;;;;;;;;109177;1252;60597;-80
2023/10/15 13:29:51;;;;;;;;;;;;;;;;;;109204;1252;60046;-79
2023/10/15 13:32:18;;;;;;;;;;;;;;;;;;109220;1252;60174;-79
2023/10/15 13:34:44;;;;;;;;;;;;;;;;;;109215;1252;60213;-79
2023/10/15 13:37:12;;;;;;;;;;;;;;;;;;109199;1252;60545;-79
2023/10/15 13:39:39;;;;;;;;;;;;;;;;;;109171;1253;60110;-79
2023/10/15 13:42:06;;;;;;;;;;;;;;;;;;109211;1252;60820;-79
2023/10/15 13:44:32;;;;;;;;;;;;;;;;;;109222;1252;59827;-79
2023/10/15 13:46:58;;;;;;;;;;;;;;;;;;109362;1251;60514;-79
2023/10/15 13:49:25;;;;;;;;;;;;;;;;;;109369;1251;60195;-79
2023/10/15 13:51:51;;;;;;;;;;;;;;;;;;109383;1251;60448;-79
2023/10/15 13:54:17;;;;;;;;;;;;;;;;;;109342;1251;60012;-79
2023/10/15 13:56:44;;;;;;;;;;;;;;;;;;109326;1251;60510;-79
2023/10/15 13:59:12;;;;;;;;;;;;;;;;;;109333;1251;60228;-80
2023/10/15 14:01:41;;;;;;;;;;;;;;;;;;109224;1251;59894;-79
2023/10/15 14:04:07;;;;;;;;;;;;;;;;;;109321;1252;60171;-79
2023/10/15 14:06:34;;;;;;;;;;;;;;;;;;109205;1252;60387;-79
2023/10/15 14:09:00;;;;;;;;;;;;;;;;;;109204;1252;59830;-79
2023/10/15 14:11:27;;;;;;;;;;;;;;;;;;109217;1253;60501;-80
2023/10/15 14:13:53;;;;;;;;;;;;;;;;;;109198;1253;59963;-79
2023/10/15 14:16:19;;;;;;;;;;;;;;;;;;109197;1253;60377;-79
2023/10/15 14:18:47;;;;;;;;;;;;;;;;;;109143;1252;60326;-80
2023/10/15 14:21:15;;;;;;;;;;;;;;;;;;109208;1252;60464;-79
2023/10/15 14:23:43;;;;;;;;;;;;;;;;;;109215;1253;60294;-79
2023/10/15 14:26:09;;;;;;;;;;;;;;;;;;109234;1252;63258;-79
2023/10/15 14:28:35;;;;;;;;;;;;;;;;;;109191;1254;59850;-79
2023/10/15 14:31:02;;;;;;;;;;;;;;;;;;109195;1253;59826;-79
2023/10/15 14:33:28;;;;;;;;;;;;;;;;;;109173;1252;59942;-79
2023/10/15 14:35:54;;;;;;;;;;;;;;;;;;109233;1252;59979;-79
2023/10/15 14:38:20;;;;;;;;;;;;;;;;;;109186;1252;60050;-79
2023/10/15 14:40:47;;;;;;;;;;;;;;;;;;109217;1253;60447;-79
2023/10/15 14:43:13;;;;;;;;;;;;;;;;;;109153;1252;60511;-79
2023/10/15 14:45:39;;;;;;;;;;;;;;;;;;109216;1253;59812;-79
2023/10/15 14:48:06;;;;;;;;;;;;;;;;;;109206;1253;60211;-79
2023/10/15 14:50:32;;;;;;;;;;;;;;;;;;109230;1253;59795;-79
2023/10/15 14:52:59;;;;;;;;;;;;;;;;;;109203;1252;60125;-79
2023/10/15 14:55:25;;;;;;;;;;;;;;;;;;109208;1253;59855;-79
2023/10/15 14:57:51;;;;;;;;;;;;;;;;;;109193;1252;60555;-79
2023/10/15 15:00:18;;;;;;;;;;;;;;;;;;109228;1252;59974;-79
2023/10/15 15:02:44;;;;;;;;;;;;;;;;;;109243;1252;59893;-80
2023/10/15 15:05:10;;;;;;;;;;;;;;;;;;109295;1252;60529;-80
2023/10/15 15:07:37;;;;;;;;;;;;;;;;;;109191;1253;60600;-79
2023/10/15 15:10:03;;;;;;;;;;;;;;;;;;109229;1252;59884;-79
2023/10/15 15:12:29;;;;;;;;;;;;;;;;;;109215;1252;59901;-79
2023/10/15 15:14:57;;;;;;;;;;;;;;;;;;109186;1253;60538;-79
2023/10/15 15:17:23;;;;;;;;;;;;;;;;;;109198;1252;60240;-79
2023/10/15 15:19:50;;;;;;;;;;;;;;;;;;109182;1252;59867;-79
2023/10/15 15:22:17;;;;;;;;;;;;;;;;;;109240;1253;60362;-79
2023/10/15 15:24:45;;;;;;;;;;;;;;;;;;109234;1253;60631;-79
2023/10/15 15:27:11;;;;;;;;;;;;;;;;;;109205;1252;59808;-79
2023/10/15 15:29:37;;;;;;;;;;;;;;;;;;109208;1252;60508;-79
2023/10/15 15:32:03;;;;;;;;;;;;;;;;;;109183;1252;59876;-79
2023/10/15 15:34:30;;;;;;;;;;;;;;;;;;109155;1253;60200;-79
2023/10/15 15:36:56;;;;;;;;;;;;;;;;;;109191;1253;60049;-79
2023/10/15 15:39:22;;;;;;;;;;;;;;;;;;109205;1252;59973;-79
2023/10/15 15:41:49;;;;;;;;;;;;;;;;;;109239;1253;59959;-79
2023/10/15 15:44:17;;;;;;;;;;;;;;;;;;109206;1253;59925;-79
2023/10/15 15:46:45;;;;;;;;;;;;;;;;;;109305;1251;59856;-79
2023/10/15 15:49:13;;;;;;;;;;;;;;;;;;109391;1251;59881;-79
2023/10/15 15:51:39;;;;;;;;;;;;;;;;;;109381;1251;61216;-79
2023/10/15 15:54:06;;;;;;;;;;;;;;;;;;109347;1251;60825;-79
2023/10/15 15:56:33;;;;;;;;;;;;;;;;;;109357;1251;59852;-79
2023/10/15 15:58:59;;;;;;;;;;;;;;;;;;109336;1251;60463;-79
2023/10/15 16:01:25;;;;;;;;;;;;;;;;;;109374;1251;59867;-79
2023/10/15 16:03:54;;;;;;;;;;;;;;;;;;109347;1251;60592;-78
2023/10/15 16:06:20;;;;;;;;;;;;;;;;;;109180;1252;59867;-79
2023/10/15 16:08:46;;;;;;;;;;;;;;;;;;109204;1253;60459;-79
2023/10/15 16:11:16;;;;;;;;;;;;;;;;;;109159;1253;59792;-79
2023/10/15 16:13:47;;;;;;;;;;;;;;;;;;109186;1256;59848;-79
2023/10/15 16:16:13;;;;;;;;;;;;;;;;;;109241;1253;63792;-79
2023/10/15 16:18:40;;;;;;;;;;;;;;;;;;109181;1253;59887;-79
2023/10/15 16:21:06;;;;;;;;;;;;;;;;;;109204;1252;60413;-79
2023/10/15 16:23:32;;;;;;;;;;;;;;;;;;109195;1253;60450;-79
2023/10/15 16:25:59;;;;;;;;;;;;;;;;;;109207;1253;59962;-79
2023/10/15 16:28:25;;;;;;;;;;;;;;;;;;109207;1253;60569;-78
2023/10/15 16:30:52;;;;;;;;;;;;;;;;;;109225;1253;59850;-78
2023/10/15 16:33:19;;;;;;;;;;;;;;;;;;109237;1253;60737;-79
2023/10/15 16:35:45;;;;;;;;;;;;;;;;;;109184;1252;59863;-79
2023/10/15 16:38:13;;;;;;;;;;;;;;;;;;109174;1253;59964;-79
2023/10/15 16:40:39;;;;;;;;;;;;;;;;;;109230;1252;62868;-79
2023/10/15 16:43:09;;;;;;;;;;;;;;;;;;109201;1253;60487;-79
2023/10/15 16:45:37;;;;;;;;;;;;;;;;;;109169;1258;61152;-79
2023/10/15 16:48:03;;;;;;;;;;;;;;;;;;109316;1252;59797;-79
2023/10/15 16:50:29;;;;;;;;;;;;;;;;;;109401;1251;60503;-79
2023/10/15 16:52:57;;;;;;;;;;;;;;;;;;109400;1251;59827;-79